Terminal Aerodrome Forecast
Issued by NWS Corpus Christi, TX

Home | Current Version | Previous Version | Text Only | Print | Product List | Glossary On
Versions: 1 2 3 4 5 6 7 8 9 10 11 12 13 14 15 16
000
FTUS44 KCRP 182300
TAFCRP
TAF
KCRP 182337Z 1900/1924 16011KT P6SM VCSH SCT024 BKN050
      TEMPO 1902/1906 5SM -SHRA BR BKN020
     FM190600 16012KT 6SM BR VCSH SCT009 OVC014 PROB30 1909/1915 4SM
      TSRA BR BKN009CB
     FM191500 30009KT P6SM VCTS SCT007 BKN017CB
     FM191900 34012KT P6SM BKN035=

USA.gov is the U.S. government's official web portal to all federal, state and local government web resources and services.